sensor_id;sensor_type;location;lat;lon;timestamp;pressure;altitude;pressure_sealevel;temperature;humidity
43820;BME280;67762;52.476;6.046;2023-05-19T00:02:15;102791.44;;;7.48;78.84
43820;BME280;67762;52.476;6.046;2023-05-19T00:04:43;102794.28;;;7.45;78.93
43820;BME280;67762;52.476;6.046;2023-05-19T00:07:09;102792.50;;;7.46;79.31
43820;BME280;67762;52.476;6.046;2023-05-19T00:09:36;102794.19;;;7.47;79.18
43820;BME280;67762;52.476;6.046;2023-05-19T00:12:02;102794.28;;;7.45;79.79
43820;BME280;67762;52.476;6.046;2023-05-19T00:14:28;102791.63;;;7.45;79.53
43820;BME280;67762;52.476;6.046;2023-05-19T00:16:54;102796.94;;;7.45;79.93
43820;BME280;67762;52.476;6.046;2023-05-19T00:19:20;102789.16;;;7.42;79.47
43820;BME280;67762;52.476;6.046;2023-05-19T00:21:46;102789.34;;;7.39;79.88
43820;BME280;67762;52.476;6.046;2023-05-19T00:24:12;102798.38;;;7.37;80.06
43820;BME280;67762;52.476;6.046;2023-05-19T00:26:37;102791.75;;;7.30;80.44
43820;BME280;67762;52.476;6.046;2023-05-19T00:29:05;102785.00;;;7.24;80.20
43820;BME280;67762;52.476;6.046;2023-05-19T00:31:31;102783.41;;;7.22;79.72
43820;BME280;67762;52.476;6.046;2023-05-19T00:33:59;102779.78;;;7.23;80.57
43820;BME280;67762;52.476;6.046;2023-05-19T00:36:24;102775.44;;;7.22;80.36
43820;BME280;67762;52.476;6.046;2023-05-19T00:38:50;102773.63;;;7.22;80.37
43820;BME280;67762;52.476;6.046;2023-05-19T00:41:16;102769.47;;;7.18;79.75
43820;BME280;67762;52.476;6.046;2023-05-19T00:43:42;102765.09;;;7.17;80.47
43820;BME280;67762;52.476;6.046;2023-05-19T00:46:08;102765.94;;;7.18;80.46
43820;BME280;67762;52.476;6.046;2023-05-19T00:48:35;102758.84;;;7.18;80.49
43820;BME280;67762;52.476;6.046;2023-05-19T00:51:01;102764.22;;;7.17;80.18
43820;BME280;67762;52.476;6.046;2023-05-19T00:53:30;102756.56;;;7.12;81.28
43820;BME280;67762;52.476;6.046;2023-05-19T00:55:57;102764.81;;;7.07;80.62
43820;BME280;67762;52.476;6.046;2023-05-19T00:58:24;102761.69;;;7.01;80.72
43820;BME280;67762;52.476;6.046;2023-05-19T01:00:54;102751.91;;;7.01;81.54
43820;BME280;67762;52.476;6.046;2023-05-19T01:03:30;102752.78;;;7.02;80.89
43820;BME280;67762;52.476;6.046;2023-05-19T01:05:57;102758.47;;;7.10;81.57
43820;BME280;67762;52.476;6.046;2023-05-19T01:08:26;102761.97;;;7.11;81.55
43820;BME280;67762;52.476;6.046;2023-05-19T01:10:52;102753.16;;;7.10;81.07
43820;BME280;67762;52.476;6.046;2023-05-19T01:13:18;102753.22;;;7.08;80.92
43820;BME280;67762;52.476;6.046;2023-05-19T01:16:09;102752.09;;;6.98;81.77
43820;BME280;67762;52.476;6.046;2023-05-19T01:18:45;102754.38;;;6.90;81.31
43820;BME280;67762;52.476;6.046;2023-05-19T01:29:40;102749.13;;;6.75;81.77
43820;BME280;67762;52.476;6.046;2023-05-19T01:32:08;102753.44;;;6.77;82.24
43820;BME280;67762;52.476;6.046;2023-05-19T01:34:38;102740.41;;;6.73;82.24
43820;BME280;67762;52.476;6.046;2023-05-19T01:37:06;102738.94;;;6.83;82.01
43820;BME280;67762;52.476;6.046;2023-05-19T01:39:33;102739.56;;;6.86;81.69
43820;BME280;67762;52.476;6.046;2023-05-19T01:42:00;102741.28;;;6.87;82.55
43820;BME280;67762;52.476;6.046;2023-05-19T01:44:27;102741.97;;;6.91;82.52
43820;BME280;67762;52.476;6.046;2023-05-19T01:46:54;102742.72;;;6.93;82.37
43820;BME280;67762;52.476;6.046;2023-05-19T01:49:19;102736.25;;;6.97;82.35
43820;BME280;67762;52.476;6.046;2023-05-19T01:51:45;102738.09;;;6.96;81.99
43820;BME280;67762;52.476;6.046;2023-05-19T01:54:11;102740.44;;;7.01;82.96
43820;BME280;67762;52.476;6.046;2023-05-19T01:56:41;102737.78;;;7.01;82.70
43820;BME280;67762;52.476;6.046;2023-05-19T01:59:30;102731.72;;;6.99;83.35
43820;BME280;67762;52.476;6.046;2023-05-19T02:02:01;102731.53;;;7.02;82.86
43820;BME280;67762;52.476;6.046;2023-05-19T02:04:40;102728.97;;;7.00;83.28
43820;BME280;67762;52.476;6.046;2023-05-19T02:07:14;102734.94;;;7.04;83.11
43820;BME280;67762;52.476;6.046;2023-05-19T02:12:22;102729.63;;;7.04;83.17
43820;BME280;67762;52.476;6.046;2023-05-19T02:15:05;102725.44;;;7.00;83.14
43820;BME280;67762;52.476;6.046;2023-05-19T02:17:35;102731.25;;;7.06;84.16
43820;BME280;67762;52.476;6.046;2023-05-19T02:20:02;102736.66;;;7.05;84.41
43820;BME280;67762;52.476;6.046;2023-05-19T02:22:30;102734.94;;;7.04;84.35
43820;BME280;67762;52.476;6.046;2023-05-19T02:24:56;102735.31;;;6.98;83.39
43820;BME280;67762;52.476;6.046;2023-05-19T02:27:22;102727.34;;;6.98;84.08
43820;BME280;67762;52.476;6.046;2023-05-19T02:29:48;102725.84;;;6.94;84.23
43820;BME280;67762;52.476;6.046;2023-05-19T02:32:14;102725.19;;;6.90;83.93
43820;BME280;67762;52.476;6.046;2023-05-19T02:34:39;102720.81;;;6.89;83.80
43820;BME280;67762;52.476;6.046;2023-05-19T02:37:06;102714.75;;;6.87;84.05
43820;BME280;67762;52.476;6.046;2023-05-19T02:39:32;102719.31;;;6.85;84.28
43820;BME280;67762;52.476;6.046;2023-05-19T02:42:00;102722.72;;;6.87;84.16
43820;BME280;67762;52.476;6.046;2023-05-19T02:44:26;102719.13;;;6.88;84.52
43820;BME280;67762;52.476;6.046;2023-05-19T02:46:52;102713.03;;;6.86;84.48
43820;BME280;67762;52.476;6.046;2023-05-19T02:49:17;102710.31;;;6.88;85.15
43820;BME280;67762;52.476;6.046;2023-05-19T02:51:43;102706.78;;;6.87;84.59
43820;BME280;67762;52.476;6.046;2023-05-19T02:54:08;102709.53;;;6.86;85.01
43820;BME280;67762;52.476;6.046;2023-05-19T02:56:34;102706.97;;;6.84;84.77
43820;BME280;67762;52.476;6.046;2023-05-19T02:58:59;102710.56;;;6.83;84.79
43820;BME280;67762;52.476;6.046;2023-05-19T03:01:25;102701.97;;;6.80;84.48
43820;BME280;67762;52.476;6.046;2023-05-19T03:03:51;102710.97;;;6.77;85.05
43820;BME280;67762;52.476;6.046;2023-05-19T03:06:17;102704.88;;;6.75;85.07
43820;BME280;67762;52.476;6.046;2023-05-19T03:08:43;102704.25;;;6.72;84.73
43820;BME280;67762;52.476;6.046;2023-05-19T03:11:09;102699.69;;;6.74;84.76
43820;BME280;67762;52.476;6.046;2023-05-19T03:13:35;102702.22;;;6.75;85.54
43820;BME280;67762;52.476;6.046;2023-05-19T03:16:00;102704.50;;;6.81;85.75
43820;BME280;67762;52.476;6.046;2023-05-19T03:18:27;102709.81;;;6.81;85.02
43820;BME280;67762;52.476;6.046;2023-05-19T03:20:53;102707.16;;;6.81;85.60
43820;BME280;67762;52.476;6.046;2023-05-19T03:23:20;102701.19;;;6.78;85.55
43820;BME280;67762;52.476;6.046;2023-05-19T03:25:46;102695.31;;;6.73;86.04
43820;BME280;67762;52.476;6.046;2023-05-19T03:28:12;102706.91;;;6.72;85.91
43820;BME280;67762;52.476;6.046;2023-05-19T03:30:38;102698.16;;;6.70;85.78
43820;BME280;67762;52.476;6.046;2023-05-19T03:33:11;102699.38;;;6.64;85.70
43820;BME280;67762;52.476;6.046;2023-05-19T03:35:37;102701.97;;;6.66;86.10
43820;BME280;67762;52.476;6.046;2023-05-19T03:38:03;102702.88;;;6.65;85.73
43820;BME280;67762;52.476;6.046;2023-05-19T03:40:29;102702.88;;;6.65;85.51
43820;BME280;67762;52.476;6.046;2023-05-19T03:43:01;102705.66;;;6.63;85.90
43820;BME280;67762;52.476;6.046;2023-05-19T03:45:27;102706.59;;;6.62;86.23
43820;BME280;67762;52.476;6.046;2023-05-19T03:47:53;102705.72;;;6.62;86.03
43820;BME280;67762;52.476;6.046;2023-05-19T03:50:38;102704.22;;;6.58;86.39
43820;BME280;67762;52.476;6.046;2023-05-19T03:53:25;102705.66;;;6.63;86.33
43820;BME280;67762;52.476;6.046;2023-05-19T03:55:51;102703.75;;;6.65;86.14
43820;BME280;67762;52.476;6.046;2023-05-19T03:58:17;102707.09;;;6.69;86.38
43820;BME280;67762;52.476;6.046;2023-05-19T04:00:43;102711.22;;;6.73;86.68
43820;BME280;67762;52.476;6.046;2023-05-19T04:03:08;102704.88;;;6.75;86.61
43820;BME280;67762;52.476;6.046;2023-05-19T04:05:34;102711.63;;;6.81;85.97
43820;BME280;67762;52.476;6.046;2023-05-19T04:07:59;102713.16;;;6.85;86.23
43820;BME280;67762;52.476;6.046;2023-05-19T04:10:25;102710.94;;;6.91;86.72
43820;BME280;67762;52.476;6.046;2023-05-19T04:12:53;102708.97;;;6.95;86.35
43820;BME280;67762;52.476;6.046;2023-05-19T04:15:18;102715.63;;;7.02;86.56
43820;BME280;67762;52.476;6.046;2023-05-19T04:17:44;102721.38;;;7.08;87.66
43820;BME280;67762;52.476;6.046;2023-05-19T04:20:10;102716.44;;;7.17;86.97
43820;BME280;67762;52.476;6.046;2023-05-19T04:22:36;102720.44;;;7.24;87.87
43820;BME280;67762;52.476;6.046;2023-05-19T04:25:02;102716.34;;;7.32;87.36
43820;BME280;67762;52.476;6.046;2023-05-19T04:27:29;102719.44;;;7.39;87.99
43820;BME280;67762;52.476;6.046;2023-05-19T04:29:56;102721.53;;;7.48;88.83
43820;BME280;67762;52.476;6.046;2023-05-19T04:32:22;102717.53;;;7.55;88.26
43820;BME280;67762;52.476;6.046;2023-05-19T04:34:49;102725.88;;;7.63;88.10
43820;BME280;67762;52.476;6.046;2023-05-19T04:37:21;102715.59;;;7.71;88.88
43820;BME280;67762;52.476;6.046;2023-05-19T04:39:47;102716.88;;;7.78;88.17
43820;BME280;67762;52.476;6.046;2023-05-19T04:42:13;102706.78;;;7.83;89.07
43820;BME280;67762;52.476;6.046;2023-05-19T04:44:39;102707.25;;;7.90;88.62
43820;BME280;67762;52.476;6.046;2023-05-19T04:47:06;102708.44;;;7.98;88.16
43820;BME280;67762;52.476;6.046;2023-05-19T04:49:36;102707.00;;;8.07;88.34
43820;BME280;67762;52.476;6.046;2023-05-19T04:52:07;102702.88;;;8.15;88.20
43820;BME280;67762;52.476;6.046;2023-05-19T04:54:38;102715.28;;;8.29;88.27
43820;BME280;67762;52.476;6.046;2023-05-19T04:57:05;102704.97;;;8.37;88.46
43820;BME280;67762;52.476;6.046;2023-05-19T04:59:34;102714.84;;;8.48;87.89
43820;BME280;67762;52.476;6.046;2023-05-19T05:02:00;102720.50;;;8.56;87.59
43820;BME280;67762;52.476;6.046;2023-05-19T05:04:28;102714.16;;;8.71;87.55
43820;BME280;67762;52.476;6.046;2023-05-19T05:06:54;102715.84;;;8.85;87.34
43820;BME280;67762;52.476;6.046;2023-05-19T05:09:20;102716.47;;;9.01;87.32
43820;BME280;67762;52.476;6.046;2023-05-19T05:11:48;102718.88;;;9.16;87.01
43820;BME280;67762;52.476;6.046;2023-05-19T05:14:14;102717.81;;;9.31;86.71
43820;BME280;67762;52.476;6.046;2023-05-19T05:16:41;102723.72;;;9.48;86.55
43820;BME280;67762;52.476;6.046;2023-05-19T05:19:10;102727.09;;;9.62;86.19
43820;BME280;67762;52.476;6.046;2023-05-19T05:21:36;102718.09;;;9.76;85.69
43820;BME280;67762;52.476;6.046;2023-05-19T05:24:03;102718.16;;;9.87;85.15
43820;BME280;67762;52.476;6.046;2023-05-19T05:26:33;102720.38;;;9.93;84.63
43820;BME280;67762;52.476;6.046;2023-05-19T05:29:00;102723.19;;;10.02;84.12
43820;BME280;67762;52.476;6.046;2023-05-19T05:31:27;102715.16;;;10.15;83.58
43820;BME280;67762;52.476;6.046;2023-05-19T05:33:53;102724.16;;;10.25;83.21
43820;BME280;67762;52.476;6.046;2023-05-19T05:36:22;102724.78;;;10.29;82.32
43820;BME280;67762;52.476;6.046;2023-05-19T05:38:48;102728.81;;;10.34;82.05
43820;BME280;67762;52.476;6.046;2023-05-19T05:41:14;102726.53;;;10.41;81.45
43820;BME280;67762;52.476;6.046;2023-05-19T05:43:40;102733.81;;;10.50;81.43
43820;BME280;67762;52.476;6.046;2023-05-19T05:46:06;102729.59;;;10.58;80.82
43820;BME280;67762;52.476;6.046;2023-05-19T05:48:32;102725.97;;;10.71;80.14
43820;BME280;67762;52.476;6.046;2023-05-19T05:50:58;102719.19;;;10.78;79.81
43820;BME280;67762;52.476;6.046;2023-05-19T05:53:29;102723.81;;;10.87;78.62
43820;BME280;67762;52.476;6.046;2023-05-19T05:55:56;102724.19;;;11.04;79.07
43820;BME280;67762;52.476;6.046;2023-05-19T05:58:26;102720.44;;;11.18;78.54
43820;BME280;67762;52.476;6.046;2023-05-19T06:00:53;102723.56;;;11.34;78.09
43820;BME280;67762;52.476;6.046;2023-05-19T06:03:22;102712.88;;;11.34;77.34
43820;BME280;67762;52.476;6.046;2023-05-19T06:05:49;102725.38;;;11.45;76.44
43820;BME280;67762;52.476;6.046;2023-05-19T06:08:14;102719.16;;;11.55;76.50
43820;BME280;67762;52.476;6.046;2023-05-19T06:10:42;102716.84;;;11.62;76.04
43820;BME280;67762;52.476;6.046;2023-05-19T06:13:09;102724.00;;;11.72;75.09
43820;BME280;67762;52.476;6.046;2023-05-19T06:15:37;102725.19;;;11.91;74.80
43820;BME280;67762;52.476;6.046;2023-05-19T06:18:14;102723.22;;;11.93;73.89
43820;BME280;67762;52.476;6.046;2023-05-19T06:20:40;102724.66;;;11.97;73.73
43820;BME280;67762;52.476;6.046;2023-05-19T06:23:07;102727.22;;;11.98;72.68
43820;BME280;67762;52.476;6.046;2023-05-19T06:25:34;102728.78;;;12.01;72.34
43820;BME280;67762;52.476;6.046;2023-05-19T06:27:59;102722.28;;;12.14;71.48
43820;BME280;67762;52.476;6.046;2023-05-19T06:30:26;102720.69;;;12.23;71.30
43820;BME280;67762;52.476;6.046;2023-05-19T06:33:01;102732.69;;;12.28;70.58
43820;BME280;67762;52.476;6.046;2023-05-19T06:35:29;102727.94;;;12.32;70.60
43820;BME280;67762;52.476;6.046;2023-05-19T06:37:55;102735.41;;;12.49;70.42
43820;BME280;67762;52.476;6.046;2023-05-19T06:40:22;102725.53;;;12.70;70.26
43820;BME280;67762;52.476;6.046;2023-05-19T06:42:47;102728.31;;;12.89;69.62
43820;BME280;67762;52.476;6.046;2023-05-19T06:45:18;102729.97;;;13.11;70.03
43820;BME280;67762;52.476;6.046;2023-05-19T06:47:48;102726.84;;;13.36;68.88
43820;BME280;67762;52.476;6.046;2023-05-19T06:50:14;102730.69;;;13.53;68.65
43820;BME280;67762;52.476;6.046;2023-05-19T06:52:41;102733.00;;;13.58;67.60
43820;BME280;67762;52.476;6.046;2023-05-19T06:55:07;102725.91;;;13.66;67.25
43820;BME280;67762;52.476;6.046;2023-05-19T07:00:01;102740.25;;;13.95;nan
43820;BME280;67762;52.476;6.046;2023-05-19T07:02:30;102736.56;;;14.06;nan
43820;BME280;67762;52.476;6.046;2023-05-19T07:04:56;102736.72;;;14.14;nan
43820;BME280;67762;52.476;6.046;2023-05-19T07:07:21;102741.25;;;14.23;nan
43820;BME280;67762;52.476;6.046;2023-05-19T07:09:48;102736.75;;;14.33;nan
43820;BME280;67762;52.476;6.046;2023-05-19T07:12:14;102736.75;;;14.33;nan
43820;BME280;67762;52.476;6.046;2023-05-19T07:14:39;102731.25;;;14.35;nan
43820;BME280;67762;52.476;6.046;2023-05-19T07:17:06;102734.47;;;14.48;nan
43820;BME280;67762;52.476;6.046;2023-05-19T07:19:32;102729.22;;;14.66;nan
43820;BME280;67762;52.476;6.046;2023-05-19T07:21:58;102736.84;;;14.80;nan
43820;BME280;67762;52.476;6.046;2023-05-19T07:24:24;102730.28;;;14.92;nan
43820;BME280;67762;52.476;6.046;2023-05-19T07:26:51;102732.09;;;15.01;nan
43820;BME280;67762;52.476;6.046;2023-05-19T07:29:18;102737.56;;;15.18;nan
43820;BME280;67762;52.476;6.046;2023-05-19T07:31:43;102736.94;;;15.24;nan
43820;BME280;67762;52.476;6.046;2023-05-19T07:34:09;102735.94;;;15.26;nan
43820;BME280;67762;52.476;6.046;2023-05-19T07:36:34;102736.53;;;15.19;nan
43820;BME280;67762;52.476;6.046;2023-05-19T07:39:01;102740.47;;;15.25;nan
43820;BME280;67762;52.476;6.046;2023-05-19T07:41:26;102731.31;;;15.45;nan
43820;BME280;67762;52.476;6.046;2023-05-19T07:43:52;102734.41;;;15.60;nan
43820;BME280;67762;52.476;6.046;2023-05-19T07:46:18;102731.13;;;15.66;nan
43820;BME280;67762;52.476;6.046;2023-05-19T07:48:43;102733.03;;;15.73;nan
43820;BME280;67762;52.476;6.046;2023-05-19T07:51:09;102735.81;;;15.82;nan
43820;BME280;67762;52.476;6.046;2023-05-19T07:53:35;102730.81;;;15.87;nan
43820;BME280;67762;52.476;6.046;2023-05-19T07:56:01;102729.97;;;16.04;nan
43820;BME280;67762;52.476;6.046;2023-05-19T07:58:28;102721.75;;;16.23;nan
43820;BME280;67762;52.476;6.046;2023-05-19T08:00:56;102723.13;;;16.27;nan
43820;BME280;67762;52.476;6.046;2023-05-19T08:03:22;102711.19;;;16.29;nan
43820;BME280;67762;52.476;6.046;2023-05-19T08:05:48;102711.88;;;16.31;nan
43820;BME280;67762;52.476;6.046;2023-05-19T08:08:14;102700.81;;;16.34;nan
43820;BME280;67762;52.476;6.046;2023-05-19T08:10:41;102706.19;;;16.34;nan
43820;BME280;67762;52.476;6.046;2023-05-19T08:13:07;102697.31;;;16.24;nan
43820;BME280;67762;52.476;6.046;2023-05-19T08:15:33;102700.03;;;16.24;nan
43820;BME280;67762;52.476;6.046;2023-05-19T08:17:58;102711.16;;;16.47;nan
43820;BME280;67762;52.476;6.046;2023-05-19T08:20:24;102705.84;;;16.55;nan
43820;BME280;67762;52.476;6.046;2023-05-19T08:22:53;102700.59;;;16.71;nan
43820;BME280;67762;52.476;6.046;2023-05-19T08:25:21;102698.44;;;16.83;nan
43820;BME280;67762;52.476;6.046;2023-05-19T08:27:47;102693.72;;;16.77;nan
43820;BME280;67762;52.476;6.046;2023-05-19T08:30:13;102693.91;;;16.58;nan
43820;BME280;67762;52.476;6.046;2023-05-19T08:32:38;102692.44;;;16.63;nan
43820;BME280;67762;52.476;6.046;2023-05-19T08:35:04;102693.91;;;16.58;nan
43820;BME280;67762;52.476;6.046;2023-05-19T08:37:30;102686.84;;;16.57;nan
43820;BME280;67762;52.476;6.046;2023-05-19T08:39:56;102681.78;;;16.54;nan
43820;BME280;67762;52.476;6.046;2023-05-19T08:42:22;102678.53;;;16.76;nan
43820;BME280;67762;52.476;6.046;2023-05-19T08:44:47;61604.63;;;-141.99;100.00
43820;BME280;67762;52.476;6.046;2023-05-19T08:47:13;61604.63;;;-141.99;100.00
43820;BME280;67762;52.476;6.046;2023-05-19T08:49:44;61604.63;;;-141.99;100.00
43820;BME280;67762;52.476;6.046;2023-05-19T08:55:03;61604.63;;;-141.99;100.00
43820;BME280;67762;52.476;6.046;2023-05-19T08:57:31;61604.63;;;-141.99;100.00
43820;BME280;67762;52.476;6.046;2023-05-19T08:59:57;61604.63;;;-141.99;100.00
43820;BME280;67762;52.476;6.046;2023-05-19T09:02:24;61604.63;;;-141.99;100.00
43820;BME280;67762;52.476;6.046;2023-05-19T09:04:50;61604.63;;;-141.99;100.00
43820;BME280;67762;52.476;6.046;2023-05-19T09:07:17;61604.63;;;-141.99;100.00
43820;BME280;67762;52.476;6.046;2023-05-19T09:09:43;61604.63;;;-141.99;100.00
43820;BME280;67762;52.476;6.046;2023-05-19T09:12:12;61604.63;;;-141.99;100.00
43820;BME280;67762;52.476;6.046;2023-05-19T09:14:38;61604.63;;;-141.99;100.00
43820;BME280;67762;52.476;6.046;2023-05-19T09:17:04;61604.63;;;-141.99;100.00
43820;BME280;67762;52.476;6.046;2023-05-19T09:19:29;61604.63;;;-141.99;100.00
43820;BME280;67762;52.476;6.046;2023-05-19T09:21:59;61604.63;;;-141.99;100.00
43820;BME280;67762;52.476;6.046;2023-05-19T09:24:27;61604.63;;;-141.99;100.00
43820;BME280;67762;52.476;6.046;2023-05-19T09:26:54;61604.63;;;-141.99;100.00
43820;BME280;67762;52.476;6.046;2023-05-19T09:29:23;61604.63;;;-141.99;100.00
43820;BME280;67762;52.476;6.046;2023-05-19T09:31:53;61604.63;;;-141.99;100.00
43820;BME280;67762;52.476;6.046;2023-05-19T09:34:20;61604.63;;;-141.99;100.00
43820;BME280;67762;52.476;6.046;2023-05-19T09:36:48;61604.63;;;-141.99;100.00
43820;BME280;67762;52.476;6.046;2023-05-19T09:39:18;61604.63;;;-141.99;100.00
43820;BME280;67762;52.476;6.046;2023-05-19T09:41:44;61604.63;;;-141.99;100.00
43820;BME280;67762;52.476;6.046;2023-05-19T09:44:23;61604.63;;;-141.99;100.00
43820;BME280;67762;52.476;6.046;2023-05-19T09:46:54;61604.63;;;-141.99;100.00
43820;BME280;67762;52.476;6.046;2023-05-19T09:49:21;61604.63;;;-141.99;100.00
43820;BME280;67762;52.476;6.046;2023-05-19T09:51:56;61604.63;;;-141.99;100.00
43820;BME280;67762;52.476;6.046;2023-05-19T09:54:23;61604.63;;;-141.99;100.00
43820;BME280;67762;52.476;6.046;2023-05-19T09:57:02;61604.63;;;-141.99;100.00
43820;BME280;67762;52.476;6.046;2023-05-19T09:59:29;61604.63;;;-141.99;100.00
43820;BME280;67762;52.476;6.046;2023-05-19T10:01:57;61604.63;;;-141.99;100.00
43820;BME280;67762;52.476;6.046;2023-05-19T10:04:25;61604.63;;;-141.99;100.00
43820;BME280;67762;52.476;6.046;2023-05-19T10:06:52;61604.63;;;-141.99;100.00
43820;BME280;67762;52.476;6.046;2023-05-19T10:09:23;61604.63;;;-141.99;100.00
43820;BME280;67762;52.476;6.046;2023-05-19T10:11:53;61604.63;;;-141.99;100.00
43820;BME280;67762;52.476;6.046;2023-05-19T10:14:22;61604.63;;;-141.99;100.00
43820;BME280;67762;52.476;6.046;2023-05-19T10:16:56;61604.63;;;-141.99;100.00
43820;BME280;67762;52.476;6.046;2023-05-19T10:19:26;61604.63;;;-141.99;100.00
43820;BME280;67762;52.476;6.046;2023-05-19T10:21:53;61604.63;;;-141.99;100.00
43820;BME280;67762;52.476;6.046;2023-05-19T10:24:19;61604.63;;;-141.99;100.00
43820;BME280;67762;52.476;6.046;2023-05-19T10:26:49;61604.63;;;-141.99;100.00
43820;BME280;67762;52.476;6.046;2023-05-19T10:29:20;61604.63;;;-141.99;100.00
43820;BME280;67762;52.476;6.046;2023-05-19T10:31:49;61604.63;;;-141.99;100.00
43820;BME280;67762;52.476;6.046;2023-05-19T10:36:56;61604.63;;;-141.99;100.00
43820;BME280;67762;52.476;6.046;2023-05-19T10:39:32;61604.63;;;-141.99;100.00
43820;BME280;67762;52.476;6.046;2023-05-19T10:42:14;61604.63;;;-141.99;100.00
43820;BME280;67762;52.476;6.046;2023-05-19T10:47:34;61604.63;;;-141.99;100.00
43820;BME280;67762;52.476;6.046;2023-05-19T10:50:00;61604.63;;;-141.99;100.00
43820;BME280;67762;52.476;6.046;2023-05-19T10:52:26;61604.63;;;-141.99;100.00
43820;BME280;67762;52.476;6.046;2023-05-19T10:54:54;61604.63;;;-141.99;100.00
43820;BME280;67762;52.476;6.046;2023-05-19T10:57:26;61604.63;;;-141.99;100.00
43820;BME280;67762;52.476;6.046;2023-05-19T10:59:54;61604.63;;;-141.99;100.00
43820;BME280;67762;52.476;6.046;2023-05-19T11:02:41;61604.63;;;-141.99;100.00
43820;BME280;67762;52.476;6.046;2023-05-19T11:05:12;61604.63;;;-141.99;100.00
43820;BME280;67762;52.476;6.046;2023-05-19T11:07:43;61604.63;;;-141.99;100.00
43820;BME280;67762;52.476;6.046;2023-05-19T11:10:09;61604.63;;;-141.99;100.00
43820;BME280;67762;52.476;6.046;2023-05-19T11:12:44;61604.63;;;-141.99;100.00
43820;BME280;67762;52.476;6.046;2023-05-19T11:15:13;61604.63;;;-141.99;100.00
43820;BME280;67762;52.476;6.046;2023-05-19T11:17:40;61604.63;;;-141.99;100.00
43820;BME280;67762;52.476;6.046;2023-05-19T11:20:21;61604.63;;;-141.99;100.00
43820;BME280;67762;52.476;6.046;2023-05-19T11:23:15;61604.63;;;-141.99;100.00
43820;BME280;67762;52.476;6.046;2023-05-19T11:28:10;61604.63;;;-141.99;100.00
43820;BME280;67762;52.476;6.046;2023-05-19T11:30:40;61604.63;;;-141.99;100.00
43820;BME280;67762;52.476;6.046;2023-05-19T11:33:07;61604.63;;;-141.99;100.00
43820;BME280;67762;52.476;6.046;2023-05-19T11:35:36;61604.63;;;-141.99;100.00
43820;BME280;67762;52.476;6.046;2023-05-19T11:38:02;61604.63;;;-141.99;100.00
43820;BME280;67762;52.476;6.046;2023-05-19T11:40:29;61604.63;;;-141.99;100.00
43820;BME280;67762;52.476;6.046;2023-05-19T11:42:55;61604.63;;;-141.99;100.00
43820;BME280;67762;52.476;6.046;2023-05-19T11:45:24;61604.63;;;-141.99;100.00
43820;BME280;67762;52.476;6.046;2023-05-19T11:47:50;61604.63;;;-141.99;100.00
43820;BME280;67762;52.476;6.046;2023-05-19T11:50:16;61604.63;;;-141.99;100.00
43820;BME280;67762;52.476;6.046;2023-05-19T11:52:43;61604.63;;;-141.99;100.00
43820;BME280;67762;52.476;6.046;2023-05-19T11:55:14;61604.63;;;-141.99;100.00
43820;BME280;67762;52.476;6.046;2023-05-19T11:57:40;61604.63;;;-141.99;100.00
43820;BME280;67762;52.476;6.046;2023-05-19T12:00:06;61604.63;;;-141.99;100.00
43820;BME280;67762;52.476;6.046;2023-05-19T12:02:34;61604.63;;;-141.99;100.00
43820;BME280;67762;52.476;6.046;2023-05-19T12:05:00;61604.63;;;-141.99;100.00
43820;BME280;67762;52.476;6.046;2023-05-19T12:07:26;61604.63;;;-141.99;100.00
43820;BME280;67762;52.476;6.046;2023-05-19T12:09:52;61604.63;;;-141.99;100.00
43820;BME280;67762;52.476;6.046;2023-05-19T12:12:19;61604.63;;;-141.99;100.00
43820;BME280;67762;52.476;6.046;2023-05-19T12:14:47;61604.63;;;-141.99;100.00
43820;BME280;67762;52.476;6.046;2023-05-19T12:17:17;61604.63;;;-141.99;100.00
43820;BME280;67762;52.476;6.046;2023-05-19T12:19:46;61604.63;;;-141.99;100.00
43820;BME280;67762;52.476;6.046;2023-05-19T12:22:12;61604.63;;;-141.99;100.00
43820;BME280;67762;52.476;6.046;2023-05-19T12:24:39;61604.63;;;-141.99;100.00
43820;BME280;67762;52.476;6.046;2023-05-19T12:27:19;61604.63;;;-141.99;100.00
43820;BME280;67762;52.476;6.046;2023-05-19T12:29:53;61604.63;;;-141.99;100.00
43820;BME280;67762;52.476;6.046;2023-05-19T12:32:24;61604.63;;;-141.99;100.00
43820;BME280;67762;52.476;6.046;2023-05-19T12:34:50;61604.63;;;-141.99;100.00
43820;BME280;67762;52.476;6.046;2023-05-19T12:37:16;61604.63;;;-141.99;100.00
43820;BME280;67762;52.476;6.046;2023-05-19T12:39:43;61604.63;;;-141.99;100.00
43820;BME280;67762;52.476;6.046;2023-05-19T12:42:10;61604.63;;;-141.99;100.00
43820;BME280;67762;52.476;6.046;2023-05-19T12:44:46;61604.63;;;-141.99;100.00
43820;BME280;67762;52.476;6.046;2023-05-19T12:47:12;61604.63;;;-141.99;100.00
43820;BME280;67762;52.476;6.046;2023-05-19T12:52:23;61604.63;;;-141.99;100.00
43820;BME280;67762;52.476;6.046;2023-05-19T12:54:59;61604.63;;;-141.99;100.00
43820;BME280;67762;52.476;6.046;2023-05-19T12:57:26;61604.63;;;-141.99;100.00
43820;BME280;67762;52.476;6.046;2023-05-19T12:59:59;61604.63;;;-141.99;100.00
43820;BME280;67762;52.476;6.046;2023-05-19T13:02:24;61604.63;;;-141.99;100.00
43820;BME280;67762;52.476;6.046;2023-05-19T13:04:50;61604.63;;;-141.99;100.00
43820;BME280;67762;52.476;6.046;2023-05-19T13:07:16;61604.63;;;-141.99;100.00
43820;BME280;67762;52.476;6.046;2023-05-19T13:09:42;61604.63;;;-141.99;100.00
43820;BME280;67762;52.476;6.046;2023-05-19T13:12:09;61604.63;;;-141.99;100.00
43820;BME280;67762;52.476;6.046;2023-05-19T13:14:34;61604.63;;;-141.99;100.00
43820;BME280;67762;52.476;6.046;2023-05-19T13:17:00;61604.63;;;-141.99;100.00
43820;BME280;67762;52.476;6.046;2023-05-19T13:19:25;61604.63;;;-141.99;100.00
43820;BME280;67762;52.476;6.046;2023-05-19T13:21:52;61604.63;;;-141.99;100.00